Wetterdaten: Woche 16.04.18 - 22.04.18 (KW16)
Datum Zeit Temperatur Luftfeuchte Luftdruck Niederschlag Windrichtung Sonnenschein Solar Wind
16.04.2018 00:00 12,3 C 77 % 1008,8 hPa 0,0 l/m O-SO 0,00 h 0 W/m 1,1 km/h (0 Bft)
16.04.2018 01:00 12,0 C 81 % 1008,9 hPa 0,0 l/m O 0,00 h 0 W/m 5,1 km/h (1 Bft)
16.04.2018 02:00 12,3 C 81 % 1009,1 hPa 0,0 l/m O 0,00 h 0 W/m 4,8 km/h (1 Bft)
16.04.2018 03:00 12,0 C 83 % 1009,4 hPa 0,0 l/m O-NO 0,00 h 0 W/m 2,7 km/h (1 Bft)
16.04.2018 04:00 11,8 C 84 % 1009,4 hPa 0,0 l/m N 0,00 h 0 W/m 0,9 km/h (0 Bft)
16.04.2018 05:00 11,5 C 86 % 1009,7 hPa 0,0 l/m SO 0,00 h 0 W/m 3,2 km/h (1 Bft)
16.04.2018 06:00 10,9 C 90 % 1010,2 hPa 0,2 l/m S-SW 0,00 h 0 W/m 2,0 km/h (1 Bft)
16.04.2018 07:00 10,4 C 92 % 1011,0 hPa 0,2 l/m N 0,00 h 12 W/m 0,0 km/h (0 Bft)
16.04.2018 08:00 10,5 C 94 % 1011,5 hPa 0,2 l/m N 0,00 h 49 W/m 0,0 km/h (0 Bft)
16.04.2018 09:00 10,7 C 97 % 1012,1 hPa 0,2 l/m S-SW 0,00 h 100 W/m 2,4 km/h (1 Bft)
16.04.2018 10:00 11,3 C 97 % 1012,4 hPa 0,0 l/m S-SW 0,00 h 209 W/m 8,8 km/h (2 Bft)
16.04.2018 11:00 12,2 C 95 % 1012,7 hPa 0,0 l/m S-SW 0,00 h 256 W/m 10,4 km/h (2 Bft)
16.04.2018 12:00 14,0 C 87 % 1012,7 hPa 0,0 l/m S-SW 0,50 h 505 W/m 8,3 km/h (2 Bft)
16.04.2018 13:00 14,2 C 80 % 1013,0 hPa 0,0 l/m S-SO 0,00 h 178 W/m 4,4 km/h (1 Bft)
16.04.2018 14:00 13,9 C 82 % 1013,4 hPa 0,0 l/m SW 0,00 h 145 W/m 8,2 km/h (2 Bft)
16.04.2018 15:00 13,7 C 85 % 1013,6 hPa 0,0 l/m SW 0,00 h 193 W/m 10,4 km/h (2 Bft)
16.04.2018 16:00 13,7 C 84 % 1013,9 hPa 0,0 l/m SW 0,00 h 164 W/m 12,1 km/h (2 Bft)
16.04.2018 17:00 13,6 C 83 % 1014,3 hPa 0,0 l/m SW 0,00 h 145 W/m 9,7 km/h (2 Bft)
16.04.2018 18:00 13,6 C 82 % 1014,7 hPa 0,0 l/m SW 0,00 h 88 W/m 7,0 km/h (2 Bft)
16.04.2018 19:00 13,5 C 83 % 1015,2 hPa 0,0 l/m SW 0,00 h 18 W/m 8,0 km/h (2 Bft)
16.04.2018 20:00 12,7 C 89 % 1015,8 hPa 0,0 l/m SW 0,00 h 5 W/m 1,2 km/h (1 Bft)
16.04.2018 21:00 12,2 C 91 % 1016,6 hPa 0,0 l/m SW 0,00 h 0 W/m 3,3 km/h (1 Bft)
16.04.2018 22:00 11,9 C 91 % 1017,2 hPa 0,0 l/m N 0,00 h 0 W/m 0,0 km/h (0 Bft)
16.04.2018 23:00 11,1 C 92 % 1017,7 hPa 0,0 l/m N 0,00 h 0 W/m 0,0 km/h (0 Bft)
17.04.2018 00:00 10,6 C 94 % 1018,4 hPa 0,0 l/m N 0,00 h 0 W/m 0,0 km/h (0 Bft)
17.04.2018 01:00 10,2 C 94 % 1018,8 hPa 0,0 l/m N 0,00 h 0 W/m 0,0 km/h (0 Bft)
17.04.2018 02:00 9,8 C 94 % 1019,0 hPa 0,0 l/m N 0,00 h 0 W/m 0,0 km/h (0 Bft)
17.04.2018 03:00 8,9 C 94 % 1019,2 hPa 0,0 l/m N 0,00 h 0 W/m 0,0 km/h (0 Bft)
17.04.2018 04:00 7,8 C 93 % 1019,8 hPa 0,0 l/m N 0,00 h 0 W/m 0,0 km/h (0 Bft)
17.04.2018 05:00 7,0 C 93 % 1020,2 hPa 0,0 l/m N 0,00 h 0 W/m 0,0 km/h (0 Bft)
17.04.2018 06:00 6,3 C 94 % 1020,8 hPa 0,0 l/m N 0,08 h 12 W/m 0,0 km/h (0 Bft)
17.04.2018 07:00 6,8 C 96 % 1021,6 hPa 0,0 l/m N 0,00 h 66 W/m 0,0 km/h (0 Bft)
17.04.2018 08:00 8,6 C 98 % 1022,2 hPa 0,0 l/m N 0,67 h 207 W/m 0,0 km/h (0 Bft)
17.04.2018 09:00 12,2 C 89 % 1022,6 hPa 0,0 l/m N 0,92 h 403 W/m 0,9 km/h (0 Bft)
17.04.2018 10:00 15,6 C 73 % 1023,2 hPa 0,0 l/m S-SO 0,92 h 547 W/m 7,1 km/h (2 Bft)
17.04.2018 11:00 17,9 C 61 % 1023,5 hPa 0,0 l/m O 1,00 h 716 W/m 12,6 km/h (3 Bft)
17.04.2018 12:00 18,8 C 55 % 1023,3 hPa 0,0 l/m O-NO 0,75 h 711 W/m 14,2 km/h (3 Bft)
17.04.2018 13:00 19,5 C 48 % 1023,4 hPa 0,0 l/m O-NO 0,67 h 680 W/m 15,6 km/h (3 Bft)
17.04.2018 14:00 20,8 C 45 % 1023,3 hPa 0,0 l/m O-NO 0,75 h 709 W/m 14,6 km/h (3 Bft)
17.04.2018 15:00 20,6 C 44 % 1023,1 hPa 0,0 l/m O-NO 0,50 h 449 W/m 15,8 km/h (3 Bft)
17.04.2018 16:00 20,3 C 45 % 1022,9 hPa 0,0 l/m O-NO 0,67 h 485 W/m 12,6 km/h (3 Bft)
17.04.2018 17:00 20,7 C 42 % 1023,0 hPa 0,0 l/m O 0,83 h 356 W/m 14,6 km/h (3 Bft)
17.04.2018 18:00 20,4 C 43 % 1023,2 hPa 0,0 l/m O 1,00 h 239 W/m 10,5 km/h (2 Bft)
17.04.2018 19:00 18,8 C 48 % 1023,7 hPa 0,0 l/m O 0,17 h 50 W/m 5,9 km/h (2 Bft)
17.04.2018 20:00 15,8 C 59 % 1024,5 hPa 0,0 l/m N 0,00 h 7 W/m 0,1 km/h (0 Bft)
17.04.2018 21:00 13,0 C 70 % 1025,4 hPa 0,0 l/m N 0,00 h 0 W/m 0,0 km/h (0 Bft)
17.04.2018 22:00 11,7 C 75 % 1025,9 hPa 0,0 l/m N 0,00 h 0 W/m 0,0 km/h (0 Bft)
17.04.2018 23:00 10,6 C 78 % 1026,1 hPa 0,0 l/m N 0,00 h 0 W/m 0,0 km/h (0 Bft)
18.04.2018 00:00 10,3 C 79 % 1026,4 hPa 0,0 l/m N 0,00 h 0 W/m 0,0 km/h (0 Bft)
18.04.2018 01:00 9,6 C 82 % 1026,8 hPa 0,0 l/m N 0,00 h 0 W/m 0,0 km/h (0 Bft)
18.04.2018 02:00 9,0 C 84 % 1027,1 hPa 0,0 l/m N 0,00 h 0 W/m 0,3 km/h (0 Bft)
18.04.2018 03:00 8,4 C 86 % 1027,0 hPa 0,0 l/m N 0,00 h 0 W/m 0,0 km/h (0 Bft)
18.04.2018 04:00 8,0 C 88 % 1027,1 hPa 0,0 l/m N 0,00 h 0 W/m 0,9 km/h (0 Bft)
18.04.2018 05:00 7,7 C 88 % 1027,1 hPa 0,0 l/m O-NO 0,00 h 0 W/m 2,7 km/h (1 Bft)
18.04.2018 06:00 7,3 C 89 % 1027,5 hPa 0,0 l/m N 0,00 h 14 W/m 0,9 km/h (0 Bft)
18.04.2018 07:00 8,1 C 88 % 1027,9 hPa 0,0 l/m N 0,42 h 87 W/m 0,3 km/h (0 Bft)
18.04.2018 08:00 11,4 C 80 % 1028,0 hPa 0,0 l/m NO 0,92 h 255 W/m 4,0 km/h (1 Bft)
18.04.2018 09:00 14,6 C 71 % 1028,1 hPa 0,0 l/m NO 0,92 h 420 W/m 10,7 km/h (2 Bft)
18.04.2018 10:00 17,7 C 59 % 1028,1 hPa 0,0 l/m O-SO 0,92 h 562 W/m 21,0 km/h (4 Bft)
18.04.2018 11:00 19,6 C 48 % 1028,1 hPa 0,0 l/m O 1,00 h 729 W/m 28,2 km/h (4 Bft)
18.04.2018 12:00 21,1 C 41 % 1027,9 hPa 0,0 l/m O-SO 1,00 h 799 W/m 26,4 km/h (4 Bft)
18.04.2018 13:00 21,8 C 41 % 1027,7 hPa 0,0 l/m O 1,00 h 810 W/m 27,1 km/h (4 Bft)
18.04.2018 14:00 22,4 C 39 % 1027,4 hPa 0,0 l/m O-NO 1,00 h 775 W/m 27,0 km/h (4 Bft)
18.04.2018 15:00 22,7 C 38 % 1027,0 hPa 0,0 l/m O 1,00 h 679 W/m 27,6 km/h (4 Bft)
18.04.2018 16:00 22,6 C 37 % 1026,7 hPa 0,0 l/m O 1,00 h 554 W/m 26,4 km/h (4 Bft)
18.04.2018 17:00 22,3 C 37 % 1026,6 hPa 0,0 l/m O 1,00 h 387 W/m 26,9 km/h (4 Bft)
18.04.2018 18:00 21,6 C 36 % 1026,5 hPa 0,0 l/m O 1,00 h 216 W/m 24,3 km/h (4 Bft)
18.04.2018 19:00 20,1 C 38 % 1026,4 hPa 0,0 l/m O-NO 0,08 h 50 W/m 20,5 km/h (4 Bft)
18.04.2018 20:00 18,1 C 44 % 1026,5 hPa 0,0 l/m O-NO 0,08 h 7 W/m 13,3 km/h (3 Bft)
18.04.2018 21:00 16,9 C 49 % 1026,7 hPa 0,0 l/m O 0,00 h 0 W/m 16,2 km/h (3 Bft)
18.04.2018 22:00 15,9 C 52 % 1026,5 hPa 0,0 l/m O 0,00 h 0 W/m 16,2 km/h (3 Bft)
18.04.2018 23:00 15,1 C 53 % 1026,4 hPa 0,0 l/m O-NO 0,00 h 0 W/m 14,6 km/h (3 Bft)
19.04.2018 00:00 14,1 C 56 % 1026,3 hPa 0,0 l/m O 0,00 h 0 W/m 9,5 km/h (2 Bft)
19.04.2018 01:00 11,8 C 64 % 1026,2 hPa 0,0 l/m O-NO 0,00 h 0 W/m 2,8 km/h (1 Bft)
19.04.2018 02:00 11,0 C 66 % 1025,9 hPa 0,0 l/m NO 0,00 h 0 W/m 3,5 km/h (1 Bft)
19.04.2018 03:00 11,0 C 64 % 1025,4 hPa 0,0 l/m NO 0,00 h 0 W/m 4,7 km/h (1 Bft)
19.04.2018 04:00 10,3 C 66 % 1025,4 hPa 0,0 l/m N 0,00 h 0 W/m 1,2 km/h (1 Bft)
19.04.2018 05:00 9,0 C 72 % 1025,3 hPa 0,0 l/m NO 0,00 h 0 W/m 3,6 km/h (1 Bft)
19.04.2018 06:00 8,1 C 76 % 1025,4 hPa 0,0 l/m NO 0,00 h 14 W/m 6,1 km/h (2 Bft)
19.04.2018 07:00 8,7 C 80 % 1025,8 hPa 0,0 l/m N-NO 0,42 h 89 W/m 2,0 km/h (1 Bft)
19.04.2018 08:00 11,5 C 72 % 1025,9 hPa 0,0 l/m N-NO 0,83 h 253 W/m 5,5 km/h (1 Bft)
19.04.2018 09:00 13,9 C 65 % 1025,8 hPa 0,0 l/m NO 0,92 h 421 W/m 5,6 km/h (1 Bft)
19.04.2018 10:00 16,1 C 59 % 1025,6 hPa 0,0 l/m NW 0,92 h 568 W/m 4,1 km/h (1 Bft)
19.04.2018 11:00 18,9 C 52 % 1025,7 hPa 0,0 l/m W 1,00 h 739 W/m 4,1 km/h (1 Bft)
19.04.2018 12:00 20,9 C 48 % 1025,3 hPa 0,0 l/m SW 1,00 h 804 W/m 6,5 km/h (2 Bft)
19.04.2018 13:00 22,9 C 45 % 1024,8 hPa 0,0 l/m W-SW 1,00 h 815 W/m 6,8 km/h (2 Bft)
19.04.2018 14:00 24,4 C 40 % 1024,3 hPa 0,0 l/m O 1,00 h 777 W/m 10,1 km/h (2 Bft)
19.04.2018 15:00 25,1 C 36 % 1023,7 hPa 0,0 l/m O-SO 1,00 h 687 W/m 14,0 km/h (3 Bft)
19.04.2018 16:00 25,5 C 34 % 1023,2 hPa 0,0 l/m O-SO 1,00 h 554 W/m 16,0 km/h (3 Bft)
19.04.2018 17:00 25,2 C 34 % 1023,0 hPa 0,0 l/m O 1,00 h 393 W/m 15,3 km/h (3 Bft)
19.04.2018 18:00 24,2 C 35 % 1022,9 hPa 0,0 l/m O 1,00 h 212 W/m 16,1 km/h (3 Bft)
19.04.2018 19:00 22,3 C 39 % 1022,8 hPa 0,0 l/m O 0,08 h 55 W/m 12,1 km/h (2 Bft)
19.04.2018 20:00 19,2 C 47 % 1022,9 hPa 0,0 l/m N 0,08 h 9 W/m 1,3 km/h (1 Bft)
19.04.2018 21:00 16,3 C 57 % 1023,2 hPa 0,0 l/m N 0,00 h 0 W/m 0,1 km/h (0 Bft)
19.04.2018 22:00 15,3 C 59 % 1023,3 hPa 0,0 l/m O 0,00 h 0 W/m 1,5 km/h (1 Bft)
19.04.2018 23:00 14,1 C 63 % 1023,1 hPa 0,0 l/m N 0,00 h 0 W/m 1,1 km/h (0 Bft)
20.04.2018 00:00 13,1 C 66 % 1022,9 hPa 0,0 l/m N 0,00 h 0 W/m 0,0 km/h (0 Bft)
20.04.2018 01:00 12,1 C 71 % 1022,7 hPa 0,0 l/m N 0,00 h 0 W/m 0,0 km/h (0 Bft)
20.04.2018 02:00 11,1 C 74 % 1022,4 hPa 0,0 l/m N 0,00 h 0 W/m 0,0 km/h (0 Bft)
20.04.2018 03:00 10,4 C 75 % 1022,0 hPa 0,0 l/m N 0,00 h 0 W/m 0,0 km/h (0 Bft)
20.04.2018 04:00 9,7 C 77 % 1021,8 hPa 0,0 l/m N 0,00 h 0 W/m 0,0 km/h (0 Bft)
20.04.2018 05:00 9,0 C 80 % 1021,6 hPa 0,0 l/m N 0,00 h 0 W/m 0,0 km/h (0 Bft)
20.04.2018 06:00 8,3 C 82 % 1021,6 hPa 0,0 l/m N 0,00 h 13 W/m 0,0 km/h (0 Bft)
20.04.2018 07:00 9,0 C 83 % 1021,8 hPa 0,0 l/m N 0,42 h 88 W/m 0,0 km/h (0 Bft)
20.04.2018 08:00 12,5 C 73 % 1021,8 hPa 0,0 l/m N 0,83 h 267 W/m 0,0 km/h (0 Bft)
20.04.2018 09:00 15,1 C 64 % 1021,8 hPa 0,0 l/m O 0,83 h 424 W/m 0,8 km/h (0 Bft)
20.04.2018 10:00 16,6 C 61 % 1021,9 hPa 0,0 l/m O 0,92 h 564 W/m 2,0 km/h (1 Bft)
20.04.2018 11:00 18,9 C 56 % 1021,8 hPa 0,0 l/m O-SO 1,00 h 724 W/m 5,6 km/h (1 Bft)
20.04.2018 12:00 21,5 C 48 % 1021,4 hPa 0,0 l/m S-SW 1,00 h 801 W/m 6,4 km/h (2 Bft)
20.04.2018 13:00 23,2 C 45 % 1020,9 hPa 0,0 l/m S-SO 1,00 h 804 W/m 5,5 km/h (1 Bft)
20.04.2018 14:00 24,3 C 43 % 1020,4 hPa 0,0 l/m S-SW 1,00 h 760 W/m 7,0 km/h (2 Bft)
20.04.2018 15:00 25,2 C 41 % 1019,9 hPa 0,0 l/m SW 1,00 h 679 W/m 6,7 km/h (2 Bft)
20.04.2018 16:00 25,9 C 39 % 1019,3 hPa 0,0 l/m SW 1,00 h 553 W/m 7,0 km/h (2 Bft)
20.04.2018 17:00 26,0 C 37 % 1018,8 hPa 0,0 l/m S-SW 1,00 h 396 W/m 6,1 km/h (2 Bft)
20.04.2018 18:00 25,1 C 43 % 1018,5 hPa 0,0 l/m S-SW 1,00 h 220 W/m 2,8 km/h (1 Bft)
20.04.2018 19:00 22,9 C 51 % 1018,2 hPa 0,0 l/m N 0,17 h 55 W/m 0,1 km/h (0 Bft)
20.04.2018 20:00 18,9 C 63 % 1018,4 hPa 0,0 l/m N 0,08 h 9 W/m 0,0 km/h (0 Bft)
20.04.2018 21:00 16,5 C 71 % 1018,8 hPa 0,0 l/m N 0,00 h 0 W/m 0,0 km/h (0 Bft)
20.04.2018 22:00 14,8 C 76 % 1018,8 hPa 0,0 l/m N 0,00 h 0 W/m 0,0 km/h (0 Bft)
20.04.2018 23:00 13,8 C 79 % 1018,7 hPa 0,0 l/m N 0,00 h 0 W/m 0,0 km/h (0 Bft)
21.04.2018 00:00 12,7 C 82 % 1018,6 hPa 0,0 l/m N 0,00 h 0 W/m 0,0 km/h (0 Bft)
21.04.2018 01:00 11,5 C 86 % 1018,4 hPa 0,0 l/m N 0,00 h 0 W/m 0,0 km/h (0 Bft)
21.04.2018 02:00 10,8 C 88 % 1018,1 hPa 0,0 l/m N 0,00 h 0 W/m 0,0 km/h (0 Bft)
21.04.2018 03:00 10,0 C 87 % 1017,9 hPa 0,0 l/m N 0,00 h 0 W/m 0,0 km/h (0 Bft)
21.04.2018 04:00 9,4 C 88 % 1017,8 hPa 0,0 l/m N 0,00 h 0 W/m 0,0 km/h (0 Bft)
21.04.2018 05:00 8,8 C 89 % 1017,7 hPa 0,0 l/m N 0,00 h 0 W/m 0,0 km/h (0 Bft)
21.04.2018 06:00 8,3 C 91 % 1017,9 hPa 0,0 l/m N 0,08 h 18 W/m 0,0 km/h (0 Bft)
21.04.2018 07:00 8,5 C 93 % 1018,3 hPa 0,0 l/m N 0,42 h 94 W/m 0,0 km/h (0 Bft)
21.04.2018 08:00 11,6 C 86 % 1018,4 hPa 0,0 l/m S-SW 0,92 h 265 W/m 1,9 km/h (1 Bft)
21.04.2018 09:00 15,7 C 69 % 1018,4 hPa 0,0 l/m S-SW 0,83 h 406 W/m 8,9 km/h (2 Bft)
21.04.2018 10:00 18,8 C 62 % 1018,5 hPa 0,0 l/m S-SW 0,83 h 515 W/m 7,9 km/h (2 Bft)
21.04.2018 11:00 21,9 C 55 % 1018,3 hPa 0,0 l/m S-SW 1,00 h 718 W/m 8,6 km/h (2 Bft)
21.04.2018 12:00 23,6 C 50 % 1017,8 hPa 0,0 l/m S-SW 1,00 h 786 W/m 10,3 km/h (2 Bft)
21.04.2018 13:00 24,9 C 45 % 1017,2 hPa 0,0 l/m S-SW 1,00 h 796 W/m 11,7 km/h (2 Bft)
21.04.2018 14:00 25,8 C 39 % 1016,7 hPa 0,0 l/m S-SW 1,00 h 756 W/m 13,4 km/h (3 Bft)
21.04.2018 15:00 26,4 C 35 % 1016,0 hPa 0,0 l/m S-SW 1,00 h 674 W/m 12,2 km/h (2 Bft)
21.04.2018 16:00 26,3 C 35 % 1015,3 hPa 0,0 l/m S-SW 1,00 h 551 W/m 11,7 km/h (2 Bft)
21.04.2018 17:00 26,0 C 36 % 1014,8 hPa 0,0 l/m S-SW 1,00 h 387 W/m 8,3 km/h (2 Bft)
21.04.2018 18:00 25,3 C 35 % 1014,5 hPa 0,0 l/m SW 1,00 h 213 W/m 3,2 km/h (1 Bft)
21.04.2018 19:00 23,1 C 44 % 1014,2 hPa 0,0 l/m N 0,08 h 55 W/m 0,4 km/h (0 Bft)
21.04.2018 20:00 19,3 C 55 % 1014,4 hPa 0,0 l/m SW 0,00 h 9 W/m 1,5 km/h (1 Bft)
21.04.2018 21:00 17,3 C 62 % 1014,9 hPa 0,0 l/m N 0,00 h 0 W/m 0,4 km/h (0 Bft)
21.04.2018 22:00 15,5 C 71 % 1015,0 hPa 0,0 l/m SW 0,00 h 0 W/m 0,0 km/h (0 Bft)
21.04.2018 23:00 14,8 C 75 % 1015,1 hPa 0,0 l/m N 0,00 h 0 W/m 0,5 km/h (0 Bft)
22.04.2018 00:00 14,3 C 76 % 1015,1 hPa 0,0 l/m N 0,00 h 0 W/m 0,0 km/h (0 Bft)
22.04.2018 01:00 13,6 C 77 % 1015,0 hPa 0,0 l/m SW 0,00 h 0 W/m 0,8 km/h (0 Bft)
22.04.2018 02:00 12,3 C 81 % 1014,7 hPa 0,0 l/m N 0,00 h 0 W/m 0,0 km/h (0 Bft)
22.04.2018 03:00 11,2 C 86 % 1014,4 hPa 0,0 l/m N 0,00 h 0 W/m 0,0 km/h (0 Bft)
22.04.2018 04:00 10,4 C 88 % 1014,2 hPa 0,0 l/m N 0,00 h 0 W/m 0,0 km/h (0 Bft)
22.04.2018 05:00 9,8 C 89 % 1014,1 hPa 0,0 l/m N 0,00 h 0 W/m 0,0 km/h (0 Bft)
22.04.2018 06:00 9,1 C 89 % 1014,2 hPa 0,0 l/m N 0,08 h 18 W/m 0,0 km/h (0 Bft)
22.04.2018 07:00 9,7 C 90 % 1014,3 hPa 0,0 l/m SW 0,33 h 87 W/m 0,1 km/h (0 Bft)
22.04.2018 08:00 12,7 C 80 % 1014,3 hPa 0,0 l/m SW 1,00 h 294 W/m 8,3 km/h (2 Bft)
22.04.2018 09:00 16,7 C 65 % 1014,2 hPa 0,0 l/m S-SW 0,83 h 428 W/m 10,2 km/h (2 Bft)
22.04.2018 10:00 19,5 C 60 % 1014,1 hPa 0,0 l/m S-SW 0,92 h 560 W/m 12,1 km/h (2 Bft)
22.04.2018 11:00 21,8 C 56 % 1013,9 hPa 0,0 l/m S-SW 1,00 h 720 W/m 12,8 km/h (3 Bft)
22.04.2018 12:00 23,5 C 46 % 1013,4 hPa 0,0 l/m W-SW 1,00 h 756 W/m 17,8 km/h (3 Bft)
22.04.2018 13:00 24,7 C 43 % 1013,0 hPa 0,0 l/m W-SW 1,00 h 802 W/m 20,2 km/h (4 Bft)
22.04.2018 14:00 25,7 C 40 % 1012,5 hPa 0,0 l/m W-SW 1,00 h 759 W/m 17,4 km/h (3 Bft)
22.04.2018 15:00 26,3 C 38 % 1011,8 hPa 0,0 l/m SW 1,00 h 682 W/m 17,8 km/h (3 Bft)
22.04.2018 16:00 26,2 C 35 % 1011,3 hPa 0,0 l/m W-SW 1,00 h 555 W/m 13,8 km/h (3 Bft)
22.04.2018 17:00 25,8 C 32 % 1011,1 hPa 0,0 l/m W-SW 1,00 h 379 W/m 13,6 km/h (3 Bft)
22.04.2018 18:00 24,6 C 33 % 1011,0 hPa 0,0 l/m W-SW 0,58 h 181 W/m 12,5 km/h (3 Bft)
22.04.2018 19:00 22,6 C 42 % 1010,9 hPa 0,0 l/m W-SW 0,17 h 62 W/m 3,5 km/h (1 Bft)
22.04.2018 20:00 18,9 C 55 % 1011,3 hPa 0,0 l/m N 0,08 h 11 W/m 0,1 km/h (0 Bft)
22.04.2018 21:00 16,7 C 63 % 1011,9 hPa 0,0 l/m N 0,00 h 0 W/m 0,4 km/h (0 Bft)
22.04.2018 22:00 15,2 C 71 % 1012,2 hPa 0,0 l/m N 0,00 h 0 W/m 0,0 km/h (0 Bft)
22.04.2018 23:00 14,2 C 76 % 1012,5 hPa 0,0 l/m N 0,00 h 0 W/m 0,3 km/h (0 Bft)
Min-Datum _ 17.04.18 22.04.18 16.04.18 - - - - 16.04.18
_ Min-Zeit 06:20 17:15 00:00 - - - - 00:00
Minimum _ 6,2 C 28 % 1008,7 hPa - - - - 0,0 km/h (0 Bft)
Max-Datum _ 21.04.18 17.04.18 18.04.18 16.04.18 - 16.04.18 17.04.18 18.04.18
_ Max-Zeit 15:45 08:30 09:25 06:35 - 12:15 14:05 11:45
Maximum _ 26,8 C 99 % 1028,2 hPa 0,2 l/m - 0,08 h 969 W/m 38,6 km/h
O (5 Bft)
Durchschnitt _ 15,7 C 66 % 1019,6 hPa #0,8 l/m S-SW #65:25 h 378 W/m 6,2 km/h (2 Bft)